createdAt,value
2019-02-21T00:01:08.635Z,75.97
2019-02-21T00:03:40.994Z,76.55
2019-02-21T00:06:13.526Z,71.42
2019-02-21T00:08:45.991Z,72.45
2019-02-21T00:11:18.382Z,69.82
2019-02-21T00:13:50.998Z,70.80
2019-02-21T00:16:23.295Z,67.20
2019-02-21T00:18:55.969Z,66.57
2019-02-21T00:21:28.347Z,65.03
2019-02-21T00:24:01.386Z,65.10
2019-02-21T00:26:34.136Z,64.60
2019-02-21T00:29:06.576Z,65.17
2019-02-21T00:31:40.108Z,63.87
2019-02-21T00:34:12.727Z,62.17
2019-02-21T00:36:46.122Z,64.30
2019-02-21T00:39:18.415Z,62.48
2019-02-21T00:41:50.598Z,61.70
2019-02-21T00:44:23.369Z,63.17
2019-02-21T00:46:55.579Z,64.53
2019-02-21T00:49:28.110Z,62.75
2019-02-21T00:52:02.644Z,61.33
2019-02-21T00:54:34.383Z,62.40
2019-02-21T00:57:06.658Z,61.95
2019-02-21T00:59:39.140Z,61.60
2019-02-21T01:02:11.310Z,58.78
2019-02-21T01:04:44.059Z,57.60
2019-02-21T01:07:16.384Z,59.13
2019-02-21T01:09:49.027Z,58.70
2019-02-21T01:12:21.648Z,58.85
2019-02-21T01:14:54.231Z,57.53
2019-02-21T01:17:26.456Z,56.55
2019-02-21T01:19:59.373Z,56.73
2019-02-21T01:22:32.110Z,58.60
2019-02-21T01:25:04.521Z,61.28
2019-02-21T01:27:37.465Z,62.65
2019-02-21T01:30:10.882Z,60.98
2019-02-21T01:32:43.795Z,63.98
2019-02-21T01:35:16.185Z,66.77
2019-02-21T01:37:48.688Z,69.70
2019-02-21T01:40:20.961Z,70.08
2019-02-21T01:42:53.673Z,71.65
2019-02-21T01:45:25.979Z,72.25
2019-02-21T01:47:58.540Z,72.35
2019-02-21T01:50:31.577Z,73.95
2019-02-21T01:53:04.428Z,71.35
2019-02-21T01:55:37.129Z,72.12
2019-02-21T01:58:09.561Z,69.55
2019-02-21T02:00:41.784Z,66.62
2019-02-21T02:03:14.392Z,66.92
2019-02-21T02:05:47.083Z,68.62
2019-02-21T02:08:19.279Z,63.87
2019-02-21T02:10:51.591Z,65.25
2019-02-21T02:13:25.056Z,64.25
2019-02-21T02:15:57.615Z,60.58
2019-02-21T02:18:30.246Z,61.65
2019-02-21T02:21:02.941Z,59.75
2019-02-21T02:23:36.947Z,66.60
2019-02-21T02:26:09.961Z,63.23
2019-02-21T02:28:43.081Z,57.98
2019-02-21T02:31:22.843Z,61.73
2019-02-21T02:33:51.987Z,59.10
2019-02-21T02:36:24.494Z,59.25
2019-02-21T02:38:57.227Z,59.30
2019-02-21T02:41:30.583Z,55.38
2019-02-21T02:44:02.934Z,53.98
2019-02-21T02:46:35.897Z,52.62
2019-02-21T02:49:09.556Z,49.73
2019-02-21T02:51:42.222Z,47.65
2019-02-21T02:54:14.542Z,58.08
2019-02-21T02:56:48.252Z,51.23
2019-02-21T02:59:20.791Z,44.93
2019-02-21T03:01:54.266Z,44.08
2019-02-21T03:04:26.887Z,42.67
2019-02-21T03:06:59.708Z,41.73
2019-02-21T03:09:32.614Z,43.95
2019-02-21T03:12:04.973Z,42.20
2019-02-21T03:14:37.373Z,43.10
2019-02-21T03:17:10.035Z,40.60
2019-02-21T03:19:43.803Z,41.42
2019-02-21T03:22:16.242Z,41.50
2019-02-21T03:24:49.043Z,40.38
2019-02-21T03:27:21.938Z,40.43
2019-02-21T03:29:54.185Z,41.63
2019-02-21T03:32:27.029Z,40.58
2019-02-21T03:34:59.607Z,42.10
2019-02-21T03:37:32.626Z,40.92
2019-02-21T03:40:05.910Z,42.05
2019-02-21T03:42:38.509Z,43.00
2019-02-21T03:45:12.939Z,43.48
2019-02-21T03:47:45.217Z,42.35
2019-02-21T03:50:18.791Z,43.00
2019-02-21T03:52:51.135Z,43.63
2019-02-21T03:55:24.353Z,42.60
2019-02-21T03:57:56.651Z,44.15
2019-02-21T04:00:29.455Z,43.00
2019-02-21T04:03:02.501Z,44.38
2019-02-21T04:05:35.071Z,45.70
2019-02-21T04:08:07.700Z,45.52
2019-02-21T04:10:40.001Z,46.85
2019-02-21T04:13:15.204Z,47.30
2019-02-21T04:15:46.897Z,46.63
2019-02-21T04:18:19.110Z,47.35
2019-02-21T04:20:52.176Z,45.85
2019-02-21T04:23:24.511Z,43.87
2019-02-21T04:25:56.822Z,46.33
2019-02-21T04:28:29.486Z,45.73
2019-02-21T04:31:01.593Z,44.63
2019-02-21T04:33:34.526Z,48.85
2019-02-21T04:36:08.082Z,47.73
2019-02-21T04:38:41.679Z,42.10
2019-02-21T04:41:14.186Z,43.45
2019-02-21T04:43:46.680Z,43.75
2019-02-21T04:46:19.420Z,36.40
2019-02-21T04:48:51.781Z,31.93
2019-02-21T04:51:24.112Z,33.88
2019-02-21T04:53:56.539Z,32.78
2019-02-21T04:56:29.323Z,32.42
2019-02-21T04:59:01.737Z,31.40
2019-02-21T05:01:34.043Z,32.58
2019-02-21T05:04:06.553Z,33.92
2019-02-21T05:06:39.031Z,32.03
2019-02-21T05:09:11.554Z,31.93
2019-02-21T05:11:43.999Z,30.57
2019-02-21T05:14:16.410Z,31.70
2019-02-21T05:16:48.943Z,28.57
2019-02-21T05:19:21.176Z,31.77
2019-02-21T05:21:53.312Z,32.20
2019-02-21T05:24:25.784Z,27.98
2019-02-21T05:26:59.238Z,27.75
2019-02-21T05:29:31.519Z,28.55
2019-02-21T05:32:05.046Z,28.95
2019-02-21T05:34:38.732Z,30.08
2019-02-21T05:37:12.350Z,30.35
2019-02-21T05:39:45.949Z,29.80
2019-02-21T05:42:19.560Z,25.57
2019-02-21T05:44:53.413Z,26.60
2019-02-21T05:47:27.879Z,27.37
2019-02-21T05:50:01.608Z,25.55
2019-02-21T05:52:36.335Z,25.52
2019-02-21T05:55:10.552Z,27.80
2019-02-21T05:57:45.045Z,25.50
2019-02-21T06:00:19.084Z,26.05
2019-02-21T06:02:53.770Z,23.67
2019-02-21T06:05:27.497Z,24.18
2019-02-21T06:08:01.427Z,25.05
2019-02-21T06:10:35.279Z,23.65
2019-02-21T06:13:08.872Z,24.63
2019-02-21T06:15:42.503Z,23.87
2019-02-21T06:18:17.769Z,24.32
2019-02-21T06:20:51.224Z,24.23
2019-02-21T06:23:25.131Z,23.47
2019-02-21T06:25:59.336Z,24.45
2019-02-21T06:28:34.745Z,24.40
2019-02-21T06:31:08.516Z,23.35
2019-02-21T06:33:40.864Z,22.98
2019-02-21T06:36:13.246Z,23.50
2019-02-21T06:38:45.712Z,23.47
2019-02-21T06:41:18.139Z,23.35
2019-02-21T06:43:52.601Z,23.12
2019-02-21T06:46:24.009Z,25.45
2019-02-21T06:48:56.514Z,24.98
2019-02-21T06:51:28.763Z,22.90
2019-02-21T06:54:01.280Z,24.47
2019-02-21T06:56:34.213Z,24.90
2019-02-21T06:59:06.910Z,23.70
2019-02-21T07:01:39.549Z,24.27
2019-02-21T07:04:12.857Z,23.40
2019-02-21T07:06:45.214Z,23.20
2019-02-21T07:09:17.797Z,24.07
2019-02-21T07:11:50.385Z,23.10
2019-02-21T07:14:22.753Z,24.27
2019-02-21T07:16:55.521Z,23.90
2019-02-21T07:19:27.807Z,24.30
2019-02-21T07:22:00.068Z,26.65
2019-02-21T07:24:32.436Z,23.27
2019-02-21T07:27:05.122Z,23.42
2019-02-21T07:29:38.781Z,22.30
2019-02-21T07:32:12.847Z,22.98
2019-02-21T07:34:45.787Z,23.25
2019-02-21T07:37:19.105Z,23.67
2019-02-21T07:39:51.926Z,23.70
2019-02-21T07:42:24.135Z,23.85
2019-02-21T07:44:59.489Z,23.15
2019-02-21T07:47:31.200Z,23.67
2019-02-21T07:50:04.227Z,22.13
2019-02-21T07:52:37.169Z,21.75
2019-02-21T07:55:10.625Z,22.65
2019-02-21T07:57:43.148Z,22.58
2019-02-21T08:00:16.705Z,24.12
2019-02-21T08:02:49.414Z,22.48
2019-02-21T08:05:23.716Z,22.27
2019-02-21T08:07:55.764Z,22.62
2019-02-21T08:10:33.595Z,21.62
2019-02-21T08:13:02.131Z,21.70
2019-02-21T08:15:34.382Z,18.98
2019-02-21T08:18:06.567Z,18.23
2019-02-21T08:20:41.036Z,17.90
2019-02-21T08:23:12.269Z,19.48
2019-02-21T08:25:44.633Z,19.00
2019-02-21T08:28:16.804Z,17.90
2019-02-21T08:30:49.174Z,17.42
2019-02-21T08:33:22.649Z,18.87
2019-02-21T08:35:57.662Z,17.32
2019-02-21T08:38:28.901Z,17.27
2019-02-21T08:41:01.530Z,17.65
2019-02-21T08:43:33.761Z,18.07
2019-02-21T08:46:06.483Z,17.35
2019-02-21T08:48:40.522Z,16.57
2019-02-21T08:51:13.421Z,17.92
2019-02-21T08:53:45.921Z,17.15
2019-02-21T08:56:18.443Z,17.87
2019-02-21T08:58:51.245Z,33.08
2019-02-21T09:01:23.897Z,25.27
2019-02-21T09:03:56.283Z,16.70
2019-02-21T09:06:29.272Z,16.45
2019-02-21T09:09:02.241Z,16.20
2019-02-21T09:11:36.287Z,15.90
2019-02-21T09:14:08.909Z,15.72
2019-02-21T09:16:41.385Z,16.85
2019-02-21T09:19:14.532Z,16.02
2019-02-21T09:21:47.058Z,16.00
2019-02-21T09:24:37.772Z,15.98
2019-02-21T09:26:53.145Z,16.35
2019-02-21T09:29:25.853Z,16.82
2019-02-21T09:31:58.680Z,16.05
2019-02-21T09:34:31.246Z,15.72
2019-02-21T09:37:05.479Z,15.58
2019-02-21T09:39:37.693Z,16.67
2019-02-21T09:42:10.469Z,16.77
2019-02-21T09:44:42.696Z,16.27
2019-02-21T09:47:15.105Z,17.12
2019-02-21T09:49:47.304Z,16.15
2019-02-21T09:52:20.130Z,16.30
2019-02-21T09:54:52.863Z,16.00
2019-02-21T09:57:25.236Z,16.00
2019-02-21T09:59:57.620Z,16.48
2019-02-21T10:02:30.282Z,22.00
2019-02-21T10:05:05.425Z,19.77
2019-02-21T10:07:37.172Z,19.92
2019-02-21T10:10:12.154Z,20.85
2019-02-21T10:12:44.121Z,20.60
2019-02-21T10:15:18.551Z,20.08
2019-02-21T10:17:50.990Z,19.80
2019-02-21T10:20:23.892Z,19.52
2019-02-21T10:22:56.481Z,19.30
2019-02-21T10:25:30.559Z,20.05
2019-02-21T10:28:03.210Z,20.55
2019-02-21T10:30:36.385Z,20.52
2019-02-21T10:33:09.298Z,20.70
2019-02-21T10:35:41.744Z,24.07
2019-02-21T10:38:14.358Z,23.98
2019-02-21T10:40:46.764Z,22.58
2019-02-21T10:43:20.135Z,23.40
2019-02-21T10:45:52.409Z,55.12
2019-02-21T10:48:24.932Z,71.42
2019-02-21T10:50:57.239Z,65.57
2019-02-21T10:53:30.456Z,49.83
2019-02-21T10:56:02.905Z,45.40
2019-02-21T10:58:36.116Z,32.13
2019-02-21T11:01:08.803Z,30.97
2019-02-21T11:03:41.149Z,30.92
2019-02-21T11:06:13.336Z,32.90
2019-02-21T11:08:45.978Z,30.20
2019-02-21T11:11:18.316Z,29.45
2019-02-21T11:13:50.762Z,28.90
2019-02-21T11:16:23.052Z,29.92
2019-02-21T11:18:55.268Z,28.15
2019-02-21T11:21:27.850Z,28.25
2019-02-21T11:24:00.093Z,28.05
2019-02-21T11:26:32.573Z,28.75
2019-02-21T11:29:04.921Z,35.30
2019-02-21T11:31:37.700Z,42.30
2019-02-21T11:34:10.188Z,53.40
2019-02-21T11:36:42.950Z,59.80
2019-02-21T11:39:15.675Z,70.70
2019-02-21T11:41:47.836Z,73.30
2019-02-21T11:44:20.968Z,61.45
2019-02-21T11:46:53.733Z,54.73
2019-02-21T11:49:26.312Z,39.33
2019-02-21T11:52:09.500Z,35.58
2019-02-21T11:54:32.313Z,33.38
2019-02-21T11:57:04.889Z,32.80
2019-02-21T11:59:37.328Z,34.60
2019-02-21T12:02:09.595Z,34.45
2019-02-21T12:04:41.864Z,33.80
2019-02-21T12:07:14.573Z,36.55
2019-02-21T12:09:46.948Z,40.98
2019-02-21T12:12:19.432Z,43.40
2019-02-21T12:14:51.647Z,49.15
2019-02-21T12:17:24.034Z,36.73
2019-02-21T12:19:56.305Z,41.85
2019-02-21T12:22:28.493Z,47.90
2019-02-21T12:25:00.881Z,55.92
2019-02-21T12:27:33.794Z,56.28
2019-02-21T12:30:07.462Z,67.62
2019-02-21T12:32:39.850Z,70.30
2019-02-21T12:35:12.415Z,81.10
2019-02-21T12:37:46.218Z,61.85
2019-02-21T12:40:20.844Z,60.28
2019-02-21T12:42:53.379Z,57.03
2019-02-21T12:45:30.068Z,46.25
2019-02-21T12:48:01.509Z,43.75
2019-02-21T12:50:43.848Z,58.40
2019-02-21T12:53:08.239Z,63.25
2019-02-21T12:55:40.955Z,59.45
2019-02-21T12:58:13.653Z,64.67
2019-02-21T13:00:46.129Z,72.60
2019-02-21T13:03:18.636Z,74.35
2019-02-21T13:05:51.349Z,71.53
2019-02-21T13:08:23.849Z,69.65
2019-02-21T13:10:56.078Z,67.32
2019-02-21T13:13:28.636Z,62.15
2019-02-21T13:16:01.441Z,55.95
2019-02-21T13:18:33.699Z,56.33
2019-02-21T13:21:06.223Z,54.83
2019-02-21T13:23:38.660Z,50.52
2019-02-21T13:26:11.301Z,50.05
2019-02-21T13:28:43.682Z,50.33
2019-02-21T13:31:16.344Z,50.05
2019-02-21T13:33:48.995Z,52.60
2019-02-21T13:36:21.510Z,51.30
2019-02-21T13:38:53.973Z,55.65
2019-02-21T13:41:26.319Z,56.73
2019-02-21T13:43:58.819Z,57.03
2019-02-21T13:46:36.816Z,60.80
2019-02-21T13:49:04.274Z,69.60
2019-02-21T13:51:36.717Z,73.15
2019-02-21T13:54:09.403Z,72.17
2019-02-21T13:56:42.051Z,53.08
2019-02-21T13:59:14.601Z,65.50
2019-02-21T14:01:47.228Z,69.45
2019-02-21T14:04:20.109Z,73.20
2019-02-21T14:06:52.896Z,72.55
2019-02-21T14:09:25.665Z,68.40
2019-02-21T14:11:58.653Z,69.17
2019-02-21T14:14:31.372Z,68.07
2019-02-21T14:17:03.873Z,69.65
2019-02-21T14:19:36.415Z,66.67
2019-02-21T14:22:09.227Z,59.88
2019-02-21T14:24:41.772Z,61.98
2019-02-21T14:27:14.410Z,59.83
2019-02-21T14:29:46.752Z,60.40
2019-02-21T14:32:19.484Z,58.58
2019-02-21T14:34:52.001Z,57.35
2019-02-21T14:37:24.177Z,63.38
2019-02-21T14:39:56.605Z,60.73
2019-02-21T14:42:28.979Z,71.00
2019-02-21T14:45:01.358Z,63.38
2019-02-21T14:47:35.222Z,59.53
2019-02-21T14:50:10.298Z,57.40
2019-02-21T14:52:43.819Z,56.30
2019-02-21T14:55:18.068Z,57.65
2019-02-21T14:57:51.560Z,61.02
2019-02-21T15:00:26.029Z,62.00
2019-02-21T15:02:58.226Z,61.37
2019-02-21T15:05:30.779Z,62.75
2019-02-21T15:08:03.146Z,60.10
2019-02-21T15:10:35.645Z,60.10
2019-02-21T15:13:09.321Z,58.00
2019-02-21T15:15:41.488Z,59.88
2019-02-21T15:18:13.962Z,58.20
2019-02-21T15:20:47.535Z,58.50
2019-02-21T15:23:20.488Z,60.73
2019-02-21T15:25:52.976Z,60.08
2019-02-21T15:28:25.177Z,60.48
2019-02-21T15:30:57.627Z,60.35
2019-02-21T15:33:29.954Z,59.30
2019-02-21T15:36:02.869Z,60.45
2019-02-21T15:38:47.539Z,64.17
2019-02-21T15:41:19.750Z,61.77
2019-02-21T15:43:52.991Z,64.90
2019-02-21T15:46:25.730Z,64.05
2019-02-21T15:48:58.565Z,62.20
2019-02-21T15:51:31.503Z,61.95
2019-02-21T15:54:04.278Z,59.58
2019-02-21T15:56:37.679Z,60.08
2019-02-21T15:59:10.201Z,60.92
2019-02-21T16:01:47.624Z,61.50
2019-02-21T16:04:16.035Z,58.98
2019-02-21T16:06:51.429Z,58.02
2019-02-21T16:09:25.251Z,57.17
2019-02-21T16:11:56.848Z,54.90
2019-02-21T16:14:29.375Z,55.23
2019-02-21T16:17:01.699Z,55.35
2019-02-21T16:19:34.125Z,55.80
2019-02-21T16:22:06.523Z,56.15
2019-02-21T16:24:40.224Z,57.90
2019-02-21T16:27:12.855Z,55.30
2019-02-21T16:29:45.240Z,55.90
2019-02-21T16:32:17.744Z,56.65
2019-02-21T16:34:50.380Z,57.00
2019-02-21T16:37:24.005Z,57.88
2019-02-21T16:39:56.492Z,126.72
2019-02-21T16:42:28.901Z,61.05
2019-02-21T16:45:01.721Z,58.42
2019-02-21T16:47:35.291Z,57.53
2019-02-21T16:50:11.169Z,54.42
2019-02-21T16:52:43.569Z,57.85
2019-02-21T16:55:17.991Z,56.68
2019-02-21T16:57:50.437Z,57.45
2019-02-21T17:00:24.603Z,58.63
2019-02-21T17:02:57.068Z,56.53
2019-02-21T17:05:29.872Z,56.88
2019-02-21T17:08:02.297Z,60.58
2019-02-21T17:10:34.444Z,63.42
2019-02-21T17:13:07.387Z,63.92
2019-02-21T17:15:40.135Z,59.98
2019-02-21T17:18:12.337Z,61.23
2019-02-21T17:20:44.759Z,60.52
2019-02-21T17:23:22.914Z,58.50
2019-02-21T17:25:50.845Z,60.28
2019-02-21T17:28:23.116Z,60.00
2019-02-21T17:30:55.947Z,61.00
2019-02-21T17:33:28.363Z,57.62
2019-02-21T17:36:01.912Z,59.55
2019-02-21T17:38:34.386Z,61.42
2019-02-21T17:41:07.007Z,60.50
2019-02-21T17:43:39.357Z,59.30
2019-02-21T17:46:11.758Z,57.25
2019-02-21T17:48:44.345Z,55.73
2019-02-21T17:51:16.662Z,57.53
2019-02-21T17:53:48.923Z,56.70
2019-02-21T17:56:21.353Z,57.78
2019-02-21T17:58:53.800Z,54.13
2019-02-21T18:01:27.028Z,56.73
2019-02-21T18:03:59.521Z,55.52
2019-02-21T18:06:31.874Z,55.08
2019-02-21T18:09:05.495Z,56.08
2019-02-21T18:11:36.759Z,55.08
2019-02-21T18:14:09.352Z,55.60
2019-02-21T18:16:41.783Z,55.30
2019-02-21T18:19:14.106Z,52.75
2019-02-21T18:21:46.922Z,55.75
2019-02-21T18:24:19.349Z,52.93
2019-02-21T18:26:52.131Z,58.25
2019-02-21T18:29:24.562Z,52.93
2019-02-21T18:31:57.026Z,54.80
2019-02-21T18:34:29.443Z,53.95
2019-02-21T18:37:02.027Z,55.17
2019-02-21T18:39:34.381Z,54.93
2019-02-21T18:42:06.724Z,57.10
2019-02-21T18:44:39.985Z,56.92
2019-02-21T18:47:12.297Z,54.15
2019-02-21T18:49:44.616Z,55.80
2019-02-21T18:52:17.056Z,53.23
2019-02-21T18:54:49.567Z,54.30
2019-02-21T18:57:22.124Z,56.90
2019-02-21T18:59:54.578Z,55.92
2019-02-21T19:02:26.910Z,56.58
2019-02-21T19:05:00.482Z,57.27
2019-02-21T19:07:33.303Z,55.85
2019-02-21T19:10:07.114Z,56.80
2019-02-21T19:12:39.406Z,56.15
2019-02-21T19:15:13.226Z,55.92
2019-02-21T19:17:45.535Z,54.53
2019-02-21T19:20:19.613Z,51.85
2019-02-21T19:22:52.237Z,51.37
2019-02-21T19:25:24.540Z,51.08
2019-02-21T19:27:56.781Z,55.60
2019-02-21T19:30:31.281Z,52.93
2019-02-21T19:33:03.924Z,51.73
2019-02-21T19:35:36.232Z,50.60
2019-02-21T19:38:10.670Z,52.65
2019-02-21T19:40:42.908Z,52.10
2019-02-21T19:43:15.255Z,53.00
2019-02-21T19:45:47.940Z,54.20
2019-02-21T19:48:21.507Z,52.58
2019-02-21T19:50:54.065Z,51.02
2019-02-21T19:53:26.341Z,50.00
2019-02-21T19:55:59.102Z,52.62
2019-02-21T19:58:31.458Z,52.38
2019-02-21T20:01:03.786Z,52.53
2019-02-21T20:03:36.037Z,52.80
2019-02-21T20:06:08.585Z,53.80
2019-02-21T20:08:41.235Z,54.08
2019-02-21T20:11:13.520Z,53.23
2019-02-21T20:13:45.820Z,54.98
2019-02-21T20:16:18.148Z,52.10
2019-02-21T20:18:50.496Z,54.38
2019-02-21T20:21:22.840Z,53.68
2019-02-21T20:23:55.147Z,52.73
2019-02-21T20:26:27.857Z,51.23
2019-02-21T20:29:00.137Z,55.25
2019-02-21T20:31:32.477Z,54.98
2019-02-21T20:34:05.023Z,54.67
2019-02-21T20:36:37.747Z,56.13
2019-02-21T20:39:10.100Z,55.40
2019-02-21T20:41:42.447Z,53.90
2019-02-21T20:44:15.150Z,53.28
2019-02-21T20:46:47.770Z,53.35
2019-02-21T20:49:20.147Z,58.33
2019-02-21T20:51:52.582Z,62.55
2019-02-21T20:54:25.229Z,58.40
2019-02-21T20:56:58.119Z,58.33
2019-02-21T20:59:30.479Z,59.30
2019-02-21T21:02:02.810Z,58.65
2019-02-21T21:04:35.174Z,58.90
2019-02-21T21:07:07.634Z,59.13
2019-02-21T21:09:40.056Z,61.90
2019-02-21T21:12:12.528Z,59.15
2019-02-21T21:14:44.980Z,58.90
2019-02-21T21:17:18.627Z,59.05
2019-02-21T21:19:51.080Z,59.67
2019-02-21T21:22:26.163Z,59.60
2019-02-21T21:24:58.890Z,58.23
2019-02-21T21:27:31.776Z,60.88
2019-02-21T21:30:04.743Z,61.13
2019-02-21T21:32:38.408Z,59.80
2019-02-21T21:35:11.237Z,59.50
2019-02-21T21:37:44.789Z,61.18
2019-02-21T21:40:19.073Z,63.33
2019-02-21T21:42:51.407Z,64.17
2019-02-21T21:45:24.041Z,62.30
2019-02-21T21:47:57.348Z,64.25
2019-02-21T21:50:30.092Z,64.67
2019-02-21T21:53:02.553Z,64.62
2019-02-21T21:55:35.008Z,63.42
2019-02-21T21:58:08.477Z,64.77
2019-02-21T22:00:41.232Z,60.00
2019-02-21T22:03:14.627Z,61.05
2019-02-21T22:05:47.037Z,58.05
2019-02-21T22:08:19.285Z,56.95
2019-02-21T22:10:51.819Z,56.05
2019-02-21T22:13:24.206Z,57.38
2019-02-21T22:15:56.640Z,60.10
2019-02-21T22:18:29.674Z,57.95
2019-02-21T22:21:02.154Z,57.43
2019-02-21T22:23:34.702Z,57.03
2019-02-21T22:26:08.077Z,57.03
2019-02-21T22:28:40.575Z,58.55
2019-02-21T22:31:12.993Z,60.35
2019-02-21T22:33:45.461Z,57.85
2019-02-21T22:36:19.540Z,58.65
2019-02-21T22:38:51.605Z,59.27
2019-02-21T22:41:24.177Z,58.52
2019-02-21T22:43:56.577Z,58.65
2019-02-21T22:46:29.180Z,59.15
2019-02-21T22:49:01.486Z,60.35
2019-02-21T22:51:33.850Z,58.30
2019-02-21T22:54:06.840Z,60.00
2019-02-21T22:56:39.298Z,62.75
2019-02-21T22:59:12.283Z,63.13
2019-02-21T23:01:44.620Z,61.77
2019-02-21T23:04:19.191Z,63.38
2019-02-21T23:06:54.070Z,65.92
2019-02-21T23:09:28.084Z,68.60
2019-02-21T23:12:01.133Z,70.92
2019-02-21T23:14:33.340Z,66.42
2019-02-21T23:17:06.050Z,66.70
2019-02-21T23:19:38.364Z,63.20
2019-02-21T23:22:11.703Z,64.92
2019-02-21T23:24:44.133Z,64.22
2019-02-21T23:27:16.451Z,66.10
2019-02-21T23:29:48.969Z,68.47
2019-02-21T23:32:21.757Z,67.55
2019-02-21T23:34:54.071Z,67.25
2019-02-21T23:37:26.651Z,68.97
2019-02-21T23:39:59.466Z,67.47
2019-02-21T23:42:32.000Z,70.35
2019-02-21T23:45:04.760Z,69.32
2019-02-21T23:47:37.311Z,69.92
2019-02-21T23:50:09.780Z,69.60
2019-02-21T23:52:42.106Z,71.47
2019-02-21T23:55:14.501Z,66.97
2019-02-21T23:57:47.930Z,86.90
